Meteorología y climatología de Navarra
Datos de la estación - Meteo Navarra

Estación de Carcastillo (La Oliva) GN

Altitud 343 m.


Datos desde el 16/09/2020 hasta el 17/09/2020 en horario solar
Los datos son PROVISIONALES

Anterior Página 1 de 1 Siguiente Descargar: Formato para Excel 2000 o superior   Formato csv   Formato para OpenOffice Calc
Fecha Temperatura Humedad relativa Radiación global Insolación Precipitación Vel. viento 10 m Vel. viento 10 m Dir. viento 10 m
ºC % W/m² s l/m² m/s km/h º
16/09/2020 0:00 20.5 58 0.0 0 0.0 2.4 8.6 103
16/09/2020 0:10 20.4 58 0.0 0 0.0 2.5 8.8 102
16/09/2020 0:20 20.2 58 0.0 0 0.0 2.2 8.0 107
16/09/2020 0:30 20.2 58 0.0 0 0.0 2.3 8.4 108
16/09/2020 0:40 20.2 58 0.0 0 0.0 2.1 7.7 108
16/09/2020 0:50 20.4 58 0.0 0 0.0 2.1 7.5 112
16/09/2020 1:00 20.5 57 0.0 0 0.0 2.2 7.8 112
16/09/2020 1:10 20.5 58 0.0 0 0.0 2.5 9.1 109
16/09/2020 1:20 20.3 58 0.0 0 0.0 2.2 8.0 112
16/09/2020 1:30 20.5 58 0.0 0 0.0 1.9 6.8 114
16/09/2020 1:40 20.5 58 0.0 0 0.0 1.3 4.7 117
16/09/2020 1:50 20.4 59 0.0 0 0.0 1.0 3.4 118
16/09/2020 2:00 20.1 61 0.0 0 0.0 0.9 3.3 100
16/09/2020 2:10 19.4 64 0.0 0 0.0 0.7 2.3 307
16/09/2020 2:20 18.9 68 0.0 0 0.0 0.5 1.8 276
16/09/2020 2:30 18.3 70 0.0 0 0.0 0.4 1.4 251
16/09/2020 2:40 17.9 70 0.0 0 0.0 0.0 0.0 0
16/09/2020 2:50 17.6 73 0.0 0 0.0 0.0 0.1 164
16/09/2020 3:00 17.4 74 0.0 0 0.0 0.6 2.1 143
16/09/2020 3:10 17.3 73 0.0 0 0.0 0.1 0.4 145
16/09/2020 3:20 17.1 72 0.0 0 0.0 0.0 0.0 158
16/09/2020 3:30 16.8 76 0.0 0 0.0 0.0 0.0 0
16/09/2020 3:40 16.6 75 0.0 0 0.0 0.0 0.0 0
16/09/2020 3:50 16.3 79 0.0 0 0.0 0.0 0.0 0
16/09/2020 4:00 16.0 81 0.0 0 0.0 0.6 2.1 110
16/09/2020 4:10 15.8 78 0.0 0 0.0 1.4 4.9 124
16/09/2020 4:20 15.8 77 0.0 0 0.0 1.7 6.3 117
16/09/2020 4:30 15.7 76 0.0 0 0.0 1.5 5.4 125
16/09/2020 4:40 15.9 76 0.0 0 0.0 1.3 4.6 134
16/09/2020 4:50 15.9 76 0.0 0 0.0 1.4 5.0 133
16/09/2020 5:00 16.1 74 0.0 0 0.0 1.4 4.9 131
16/09/2020 5:10 16.2 75 0.0 0 0.0 1.4 5.2 123
16/09/2020 5:20 16.0 75 0.0 0 0.0 1.8 6.4 123
16/09/2020 5:30 15.9 75 0.0 0 0.0 2.3 8.1 120
16/09/2020 5:40 15.7 76 0.0 0 0.0 2.5 8.9 117
16/09/2020 5:50 15.6 76 0.0 0 0.0 2.6 9.4 118
16/09/2020 6:00 15.6 76 0.0 0 0.0 2.4 8.5 121
16/09/2020 6:10 15.5 77 19.3 24 0.0 1.2 4.2 114
16/09/2020 6:20 15.5 77 40.1 600 0.0 2.2 8.1 114
16/09/2020 6:30 16.0 75 59.7 600 0.0 2.5 8.8 115
16/09/2020 6:40 16.2 75 82.1 600 0.0 1.7 6.3 121
16/09/2020 6:50 16.9 73 107.7 600 0.0 1.6 5.9 110
16/09/2020 7:00 17.3 73 134.3 600 0.0 1.5 5.5 106
16/09/2020 7:10 17.9 72 165.1 600 0.0 1.5 5.2 103
16/09/2020 7:20 18.5 69 194.6 600 0.0 1.5 5.5 106
16/09/2020 7:30 19.2 67 226.1 600 0.0 2.0 7.3 100
16/09/2020 7:40 20.2 63 250.3 600 0.0 2.3 8.2 106
16/09/2020 7:50 21.1 60 273.8 600 0.0 2.0 7.1 105
16/09/2020 8:00 21.9 58 312.8 600 0.0 1.9 6.7 102
16/09/2020 8:10 22.7 56 346.4 600 0.0 1.5 5.5 93
16/09/2020 8:20 23.4 54 378.6 600 0.0 0.9 3.2 115
16/09/2020 8:30 24.0 51 409.3 600 0.0 0.4 1.3 106
16/09/2020 8:40 24.6 52 436.5 600 0.0 0.3 1.1 51
16/09/2020 8:50 25.1 50 462.4 600 0.0 0.0 0.0 47
16/09/2020 9:00 25.6 50 486.8 600 0.0 0.0 0.0 73
16/09/2020 9:10 26.1 50 513.8 600 0.0 0.4 1.5 106
16/09/2020 9:20 26.7 48 537.2 600 0.0 0.1 0.4 97
16/09/2020 9:30 26.8 48 564.4 600 0.0 0.1 0.3 95
16/09/2020 9:40 27.3 47 591.0 600 0.0 0.3 1.2 95
16/09/2020 9:50 27.8 46 615.8 600 0.0 0.4 1.4 47
16/09/2020 10:00 28.0 45 637.3 600 0.0 0.2 0.6 180
16/09/2020 10:10 28.7 42 658.9 600 0.0 1.0 3.6 147
16/09/2020 10:20 28.9 41 676.5 600 0.0 1.1 4.1 143
16/09/2020 10:30 29.1 42 692.0 600 0.0 1.5 5.2 111
16/09/2020 10:40 29.4 41 709.6 600 0.0 0.9 3.3 111
16/09/2020 10:50 29.7 40 723.8 600 0.0 0.4 1.4 202
16/09/2020 11:00 30.2 39 734.8 600 0.0 0.2 0.8 155
16/09/2020 11:10 30.1 39 745.0 600 0.0 0.1 0.5 291
16/09/2020 11:20 30.6 37 751.1 600 0.0 0.5 1.8 248
16/09/2020 11:30 30.7 37 758.8 600 0.0 0.5 1.9 112
16/09/2020 11:40 31.0 38 764.2 600 0.0 0.6 2.1 76
16/09/2020 11:50 31.0 36 763.0 600 0.0 0.2 0.8 170
16/09/2020 12:00 31.2 36 751.6 600 0.0 0.7 2.6 54
16/09/2020 12:10 31.1 37 757.7 600 0.0 0.3 1.1 38
16/09/2020 12:20 31.7 35 758.0 600 0.0 0.7 2.5 115
16/09/2020 12:30 31.8 34 733.0 600 0.0 0.4 1.3 88
16/09/2020 12:40 32.0 35 733.7 600 0.0 0.1 0.4 12
16/09/2020 12:50 32.1 34 715.1 600 0.0 0.1 0.3 332
16/09/2020 13:00 32.2 33 722.3 600 0.0 0.8 2.8 278
16/09/2020 13:10 32.2 33 704.3 600 0.0 0.1 0.4 347
16/09/2020 13:20 32.3 33 691.5 600 0.0 0.4 1.3 170
16/09/2020 13:30 32.5 31 701.5 600 0.0 0.3 1.1 103
16/09/2020 13:40 32.8 33 685.8 600 0.0 0.3 0.9 314
16/09/2020 13:50 32.6 32 663.7 600 0.0 2.0 7.1 297
16/09/2020 14:00 32.7 30 637.1 600 0.0 0.7 2.4 288
16/09/2020 14:10 32.8 31 619.9 600 0.0 0.2 0.6 44
16/09/2020 14:20 32.9 29 617.6 600 0.0 0.8 2.9 14
16/09/2020 14:30 32.8 28 564.9 600 0.0 0.0 0.0 0
16/09/2020 14:40 33.0 27 350.3 356 0.0 0.1 0.3 255
16/09/2020 14:50 32.6 29 411.4 508 0.0 1.1 3.9 320
16/09/2020 15:00 32.8 29 602.3 600 0.0 0.7 2.3 322
16/09/2020 15:10 32.9 28 357.5 350 0.0 0.6 2.1 295
16/09/2020 15:20 32.5 30 231.4 68 0.0 1.0 3.7 289
16/09/2020 15:30 32.1 31 188.8 0 0.0 0.7 2.6 292
16/09/2020 15:40 31.7 32 290.1 464 0.0 1.0 3.4 306
16/09/2020 15:50 31.7 32 381.1 600 0.0 0.8 2.8 313
16/09/2020 16:00 32.3 31 421.4 600 0.0 0.5 1.9 318
16/09/2020 16:10 32.5 28 347.0 600 0.0 0.6 2.3 311
16/09/2020 16:20 32.8 28 315.7 600 0.0 0.2 0.9 277
16/09/2020 16:30 32.9 28 265.3 600 0.0 0.4 1.4 277
16/09/2020 16:40 32.8 28 219.2 600 0.0 0.2 0.7 312
16/09/2020 16:50 32.4 28 176.6 600 0.0 0.9 3.2 308
16/09/2020 17:00 32.0 30 136.5 600 0.0 0.7 2.5 306
16/09/2020 17:10 31.9 32 111.6 460 0.0 0.1 0.2 286
16/09/2020 17:20 31.7 33 53.3 0 0.0 0.3 1.2 285
16/09/2020 17:30 31.0 34 36.0 0 0.0 0.0 0.0 0
16/09/2020 17:40 30.3 35 28.4 0 0.0 0.0 0.1 198
16/09/2020 17:50 29.8 37 14.7 0 0.0 0.1 0.2 217
16/09/2020 18:00 29.2 38 0.0 0 0.0 0.1 0.4 216
16/09/2020 18:10 28.5 41 0.0 0 0.0 0.0 0.0 0
16/09/2020 18:20 27.0 49 0.0 0 0.0 0.0 0.0 0
16/09/2020 18:30 26.6 47 0.0 0 0.0 0.0 0.0 0
16/09/2020 18:40 26.0 47 0.0 0 0.0 0.0 0.0 0
16/09/2020 18:50 25.5 48 0.0 0 0.0 0.0 0.0 0
16/09/2020 19:00 24.9 51 0.0 0 0.0 0.8 3.0 98
16/09/2020 19:10 23.9 50 0.0 0 0.0 0.5 1.7 114
16/09/2020 19:20 23.7 52 0.0 0 0.0 1.3 4.6 101
16/09/2020 19:30 23.6 51 0.0 0 0.0 2.2 7.7 82
16/09/2020 19:40 23.4 49 0.0 0 0.0 2.0 7.3 63
16/09/2020 19:50 23.3 49 0.0 0 0.0 0.5 1.9 76
16/09/2020 20:00 23.2 48 0.0 0 0.0 0.4 1.3 102
16/09/2020 20:10 23.3 47 0.0 0 0.0 1.7 6.1 106
16/09/2020 20:20 23.9 44 0.0 0 0.0 1.6 5.8 120
16/09/2020 20:30 23.8 45 0.0 0 0.0 2.0 7.0 122
16/09/2020 20:40 24.0 44 0.0 0 0.0 2.5 9.0 110
16/09/2020 20:50 23.6 46 0.0 0 0.0 2.5 9.1 106
16/09/2020 21:00 23.3 47 0.0 0 0.0 2.7 9.7 118
16/09/2020 21:10 22.6 48 0.0 0 0.0 3.9 14.1 133
16/09/2020 21:20 22.7 47 0.0 0 0.0 3.4 12.3 133
16/09/2020 21:30 22.7 48 0.0 0 0.0 2.8 9.9 109
16/09/2020 21:40 22.5 51 0.0 0 0.0 2.2 7.8 72
16/09/2020 21:50 22.1 51 0.0 0 0.0 1.9 6.9 107
16/09/2020 22:00 21.8 53 0.0 0 0.0 2.3 8.2 112
16/09/2020 22:10 21.4 53 0.0 0 0.0 2.4 8.8 114
16/09/2020 22:20 21.2 54 0.0 0 0.0 2.6 9.4 108
16/09/2020 22:30 21.3 54 0.0 0 0.0 2.7 9.6 106
16/09/2020 22:40 21.7 53 0.0 0 0.0 2.6 9.4 105
16/09/2020 22:50 21.8 53 0.0 0 0.0 2.5 9.1 111
16/09/2020 23:00 21.6 51 0.0 0 0.0 2.7 9.9 115
16/09/2020 23:10 21.5 52 0.0 0 0.0 2.5 8.8 113
16/09/2020 23:20 21.4 53 0.0 0 0.0 2.4 8.5 110
16/09/2020 23:30 21.1 54 0.0 0 0.0 2.3 8.4 114
16/09/2020 23:40 21.1 54 0.0 0 0.0 2.2 8.0 114
16/09/2020 23:50 21.1 55 0.0 0 0.0 2.1 7.6 114
Anterior Página 1 de 1 Siguiente

NOTA: Tipo de datos según el color:
   - Valores diarios o 10 minutos correctos
   - Valores diarios calculados a partir de un número de datos 10 minutos menor que 144 y mayor que 120, o de un número de datos semihorarios menor que 48 y mayor que 40 (caso de las estaciones de INTIA y del Ministerio)
   - Valores diez minutos estimados


Contacto        Enlaces        Aviso legal